Lower Mifflin, Pennsylvania
Current Conditions -  °F | °C
As of 6:56 PM on Sunday 21 Dec 2014 (Local Time) from KCXY Reporting Station
Clear Clear  
Wind Chill: 32°   Ceiling: Unl
Heat Index: 32°   Visibility: 10mi
Dew Point: 22°   Wind: 0mph
Humidity: 66%   Direction: NA
Pressure: 30.35"   Gusts: NA
Location:  40.183°N, 77.4166°W
Report Text: KCXY 212356Z 00000KT 10SM CLR 00/M06 A3035 RMK AO2 SLP284 T00001056 10028 20000 53015
Loading
Personal Weather Stations






























Interactive Weather Map New forecast layout! Learn more

10-Day Weather Forecast

Advertisements
Track Severe Weather on mobile